createdAt,value
2018-03-03T00:00:58.921Z,85.50
2018-03-03T00:03:26.191Z,85.40
2018-03-03T00:05:53.413Z,85.30
2018-03-03T00:08:21.457Z,85.30
2018-03-03T00:10:48.014Z,85.20
2018-03-03T00:13:14.533Z,85.20
2018-03-03T00:15:41.080Z,85.40
2018-03-03T00:18:07.581Z,85.50
2018-03-03T00:20:38.084Z,85.60
2018-03-03T00:23:04.585Z,85.40
2018-03-03T00:25:31.078Z,85.50
2018-03-03T00:27:57.608Z,85.60
2018-03-03T00:30:24.121Z,85.40
2018-03-03T00:32:51.352Z,84.70
2018-03-03T00:35:17.878Z,84.70
2018-03-03T00:37:44.403Z,84.70
2018-03-03T00:40:10.928Z,84.80
2018-03-03T00:42:37.416Z,84.70
2018-03-03T00:45:04.868Z,85.00
2018-03-03T00:47:32.306Z,84.70
2018-03-03T00:49:58.817Z,84.70
2018-03-03T00:52:25.292Z,85.10
2018-03-03T00:54:51.812Z,85.30
2018-03-03T00:57:18.332Z,85.20
2018-03-03T00:59:44.944Z,84.90
2018-03-03T01:02:11.469Z,85.00
2018-03-03T01:04:38.001Z,84.80
2018-03-03T01:07:04.492Z,84.70
2018-03-03T01:09:31.038Z,85.20
2018-03-03T01:11:57.553Z,85.30
2018-03-03T01:14:24.080Z,85.80
2018-03-03T01:16:50.556Z,85.10
2018-03-03T01:19:17.802Z,85.30
2018-03-03T01:21:45.036Z,85.40
2018-03-03T01:24:11.541Z,85.40
2018-03-03T01:26:40.044Z,85.50
2018-03-03T01:29:07.345Z,85.70
2018-03-03T01:31:34.629Z,85.70
2018-03-03T01:34:01.133Z,85.70
2018-03-03T01:36:28.392Z,85.90
2018-03-03T01:38:57.729Z,85.90
2018-03-03T01:41:37.721Z,85.90
2018-03-03T01:44:04.256Z,85.90
2018-03-03T01:46:30.756Z,86.00
2018-03-03T01:48:57.313Z,86.20
2018-03-03T01:51:36.025Z,86.20
2018-03-03T01:54:02.584Z,86.20
2018-03-03T01:56:29.081Z,86.10
2018-03-03T01:58:59.497Z,86.00
2018-03-03T02:01:26.010Z,86.10
2018-03-03T02:03:53.294Z,86.50
2018-03-03T02:06:19.874Z,86.50
2018-03-03T02:08:46.463Z,86.50
2018-03-03T02:11:13.036Z,86.50
2018-03-03T02:13:39.529Z,86.50
2018-03-03T02:16:06.071Z,86.60
2018-03-03T02:18:32.614Z,86.70
2018-03-03T02:20:59.146Z,87.90
2018-03-03T02:23:25.697Z,87.40
2018-03-03T02:25:52.228Z,87.60
2018-03-03T02:28:18.752Z,87.60
2018-03-03T02:30:45.277Z,87.70
2018-03-03T02:33:12.552Z,87.70
2018-03-03T02:35:39.062Z,87.70
2018-03-03T02:38:05.563Z,87.70
2018-03-03T02:40:32.070Z,87.60
2018-03-03T02:42:58.614Z,87.50
2018-03-03T02:45:25.157Z,87.50
2018-03-03T02:47:51.695Z,87.60
2018-03-03T02:50:18.358Z,87.60
2018-03-03T02:52:44.935Z,87.40
2018-03-03T02:55:11.467Z,87.30
2018-03-03T02:57:37.981Z,87.20
2018-03-03T03:00:04.514Z,86.80
2018-03-03T03:02:31.816Z,87.10
2018-03-03T03:04:58.316Z,87.10
2018-03-03T03:07:25.615Z,87.10
2018-03-03T03:09:52.210Z,87.10
2018-03-03T03:12:18.793Z,86.70
2018-03-03T03:14:45.319Z,87.00
2018-03-03T03:17:12.630Z,87.20
2018-03-03T03:19:39.946Z,87.10
2018-03-03T03:22:06.502Z,87.10
2018-03-03T03:24:33.009Z,86.80
2018-03-03T03:26:59.569Z,86.60
2018-03-03T03:29:26.111Z,86.60
2018-03-03T03:31:52.662Z,86.40
2018-03-03T03:34:19.199Z,86.50
2018-03-03T03:36:46.491Z,88.10
2018-03-03T03:39:13.019Z,88.00
2018-03-03T03:41:43.410Z,88.90
2018-03-03T03:44:09.930Z,88.90
2018-03-03T03:46:36.475Z,88.80
2018-03-03T03:49:03.768Z,89.60
2018-03-03T03:51:30.344Z,89.60
2018-03-03T03:53:56.982Z,89.70
2018-03-03T03:56:24.507Z,90.10
2018-03-03T03:58:51.796Z,89.80
2018-03-03T04:01:18.361Z,89.80
2018-03-03T04:03:44.876Z,89.10
2018-03-03T04:06:11.395Z,89.10
2018-03-03T04:08:38.686Z,89.00
2018-03-03T04:11:05.998Z,88.90
2018-03-03T04:13:32.583Z,88.90
2018-03-03T04:16:00.012Z,88.70
2018-03-03T04:18:26.576Z,88.70
2018-03-03T04:20:53.843Z,89.20
2018-03-03T04:23:20.527Z,89.10
2018-03-03T04:25:47.074Z,89.20
2018-03-03T04:28:13.685Z,89.40
2018-03-03T04:30:40.233Z,89.50
2018-03-03T04:33:06.834Z,89.70
2018-03-03T04:35:34.272Z,90.00
2018-03-03T04:38:00.863Z,90.00
2018-03-03T04:40:27.408Z,90.10
2018-03-03T04:42:53.978Z,90.10
2018-03-03T04:45:20.575Z,90.20
2018-03-03T04:47:47.217Z,90.40
2018-03-03T04:50:13.774Z,90.50
2018-03-03T04:52:40.362Z,90.50
2018-03-03T04:55:06.930Z,90.50
2018-03-03T04:57:33.538Z,90.40
2018-03-03T05:03:20.673Z,90.50
2018-03-03T05:06:07.880Z,90.40
2018-03-03T05:08:35.433Z,90.40
2018-03-03T05:11:02.110Z,90.40
2018-03-03T05:13:35.357Z,90.50
2018-03-03T05:16:08.822Z,90.60
2018-03-03T05:21:45.562Z,90.70
2018-03-03T05:24:18.404Z,90.80
2018-03-03T05:27:01.036Z,90.90
2018-03-03T05:29:33.851Z,91.00
2018-03-03T05:32:06.442Z,90.90
2018-03-03T05:34:39.921Z,91.10
2018-03-03T05:37:16.438Z,91.10
2018-03-03T05:39:49.107Z,91.10
2018-03-03T05:45:25.663Z,91.20
2018-03-03T05:47:58.354Z,91.50
2018-03-03T05:50:30.981Z,91.60
2018-03-03T05:53:03.530Z,91.80
2018-03-03T05:55:36.049Z,91.90
2018-03-03T06:01:04.452Z,92.40
2018-03-03T06:03:37.138Z,92.50
2018-03-03T06:06:21.515Z,92.50
2018-03-03T06:09:03.821Z,92.60
2018-03-03T06:11:31.162Z,92.60
2018-03-03T06:13:58.531Z,92.60
2018-03-03T06:16:25.940Z,92.60
2018-03-03T06:18:53.211Z,92.60
2018-03-03T06:21:19.780Z,92.60
2018-03-03T06:23:48.434Z,92.60
2018-03-03T06:26:14.966Z,92.60
2018-03-03T06:28:41.521Z,92.50
2018-03-03T06:31:08.149Z,92.50
2018-03-03T06:33:34.703Z,92.40
2018-03-03T06:36:02.762Z,92.30
2018-03-03T06:38:29.330Z,92.30
2018-03-03T06:40:55.888Z,92.20
2018-03-03T06:43:23.182Z,92.20
2018-03-03T06:45:49.814Z,92.10
2018-03-03T06:48:16.356Z,92.20
2018-03-03T06:50:42.852Z,92.10
2018-03-03T06:53:10.141Z,92.10
2018-03-03T06:55:36.658Z,92.10
2018-03-03T06:58:03.223Z,92.00
2018-03-03T07:00:29.761Z,92.00
2018-03-03T07:02:56.334Z,91.70
2018-03-03T07:05:22.847Z,91.80
2018-03-03T07:07:49.773Z,91.90
2018-03-03T07:10:16.353Z,91.70
2018-03-03T07:12:42.987Z,91.60
2018-03-03T07:18:04.218Z,91.30
2018-03-03T07:20:30.734Z,91.10
2018-03-03T07:22:57.271Z,91.10
2018-03-03T07:25:24.738Z,91.10
2018-03-03T07:27:51.302Z,91.00
2018-03-03T07:30:18.543Z,90.80
2018-03-03T07:32:45.079Z,90.70
2018-03-03T07:35:11.618Z,90.50
2018-03-03T07:37:39.227Z,89.40
2018-03-03T07:40:05.760Z,89.30
2018-03-03T07:42:32.341Z,87.80
2018-03-03T07:44:59.646Z,84.40
2018-03-03T07:47:26.167Z,84.30
2018-03-03T07:49:52.822Z,82.70
2018-03-03T07:52:19.338Z,81.60
2018-03-03T07:54:50.872Z,78.70
2018-03-03T07:57:17.488Z,78.70
2018-03-03T07:59:44.042Z,76.80
2018-03-03T08:02:10.759Z,75.80
2018-03-03T08:04:37.381Z,74.40
2018-03-03T08:07:03.973Z,71.80
2018-03-03T08:09:30.923Z,72.20
2018-03-03T08:11:58.217Z,72.30
2018-03-03T08:14:24.807Z,72.20
2018-03-03T08:16:51.354Z,73.50
2018-03-03T08:19:17.972Z,74.20
2018-03-03T08:21:44.504Z,75.40
2018-03-03T08:24:11.078Z,73.10
2018-03-03T08:26:37.647Z,73.10
2018-03-03T08:29:04.232Z,74.40
2018-03-03T08:31:31.503Z,74.80
2018-03-03T08:33:58.809Z,74.10
2018-03-03T08:39:22.268Z,74.60
2018-03-03T08:41:48.684Z,72.80
2018-03-03T08:44:15.885Z,70.50
2018-03-03T08:46:42.301Z,70.50
2018-03-03T08:49:08.773Z,68.80
2018-03-03T08:51:35.223Z,68.00
2018-03-03T08:54:01.681Z,68.20
2018-03-03T08:56:28.115Z,68.30
2018-03-03T08:58:54.584Z,66.20
2018-03-03T09:01:21.060Z,64.90
2018-03-03T09:03:48.244Z,63.00
2018-03-03T09:06:14.704Z,63.00
2018-03-03T09:08:41.162Z,62.10
2018-03-03T09:11:07.644Z,63.90
2018-03-03T09:13:34.091Z,64.10
2018-03-03T09:16:00.559Z,61.50
2018-03-03T09:18:27.661Z,61.00
2018-03-03T09:20:54.135Z,59.60
2018-03-03T09:23:20.591Z,57.80
2018-03-03T09:25:47.012Z,57.40
2018-03-03T09:28:13.482Z,57.90
2018-03-03T09:30:57.283Z,59.60
2018-03-03T09:33:23.809Z,59.80
2018-03-03T09:35:51.603Z,57.90
2018-03-03T09:38:18.092Z,56.20
2018-03-03T09:40:45.174Z,55.40
2018-03-03T09:43:11.684Z,56.20
2018-03-03T09:45:38.156Z,54.40
2018-03-03T09:48:04.636Z,56.60
2018-03-03T09:50:31.320Z,56.30
2018-03-03T09:52:59.305Z,51.30
2018-03-03T09:55:26.679Z,52.30
2018-03-03T09:57:53.445Z,51.70
2018-03-03T10:00:19.915Z,49.40
2018-03-03T10:02:46.409Z,50.50
2018-03-03T10:05:13.572Z,51.90
2018-03-03T10:07:40.009Z,51.80
2018-03-03T10:10:06.496Z,49.70
2018-03-03T10:12:32.952Z,48.10
2018-03-03T10:14:59.529Z,49.20
2018-03-03T10:17:26.024Z,45.70
2018-03-03T10:19:53.208Z,48.40
2018-03-03T10:22:19.638Z,48.30
2018-03-03T10:24:46.065Z,47.10
2018-03-03T10:27:12.854Z,45.10
2018-03-03T10:29:39.276Z,45.20
2018-03-03T10:32:05.922Z,42.60
2018-03-03T10:34:32.422Z,43.80
2018-03-03T10:36:58.955Z,46.20
2018-03-03T10:39:25.453Z,46.50
2018-03-03T10:41:51.893Z,44.40
2018-03-03T10:44:18.410Z,43.50
2018-03-03T10:46:44.889Z,43.90
2018-03-03T10:49:11.356Z,45.20
2018-03-03T10:51:37.825Z,44.30
2018-03-03T10:54:06.028Z,46.30
2018-03-03T10:56:33.226Z,46.20
2018-03-03T10:59:03.764Z,46.20
2018-03-03T11:01:30.292Z,42.30
2018-03-03T11:03:57.574Z,43.30
2018-03-03T11:06:24.323Z,43.30
2018-03-03T11:08:51.139Z,41.40
2018-03-03T11:11:17.736Z,41.70
2018-03-03T11:13:48.180Z,43.10
2018-03-03T11:16:15.180Z,40.50
2018-03-03T11:18:41.932Z,39.00
2018-03-03T11:21:08.835Z,41.90
2018-03-03T11:23:35.547Z,42.80
2018-03-03T11:26:02.412Z,41.20
2018-03-03T11:28:29.977Z,41.10
2018-03-03T11:30:56.759Z,41.00
2018-03-03T11:33:24.176Z,36.90
2018-03-03T11:35:51.262Z,37.50
2018-03-03T11:38:18.916Z,37.70
2018-03-03T11:40:46.821Z,39.40
2018-03-03T11:43:13.556Z,39.30
2018-03-03T11:45:40.417Z,41.80
2018-03-03T11:48:11.832Z,37.10
2018-03-03T11:50:39.026Z,37.30
2018-03-03T11:53:05.441Z,37.20
2018-03-03T11:55:31.869Z,40.00
2018-03-03T11:57:59.020Z,39.10
2018-03-03T12:00:25.460Z,39.10
2018-03-03T12:02:52.632Z,38.90
2018-03-03T12:05:19.160Z,38.90
2018-03-03T12:07:46.261Z,38.30
2018-03-03T12:10:13.161Z,40.00
2018-03-03T12:12:39.972Z,39.20
2018-03-03T12:15:06.883Z,38.80
2018-03-03T12:17:33.379Z,41.10
2018-03-03T12:19:59.906Z,37.20
2018-03-03T12:22:26.816Z,38.60
2018-03-03T12:24:53.598Z,38.20
2018-03-03T12:27:20.390Z,37.00
2018-03-03T12:29:46.949Z,38.40
2018-03-03T12:32:13.809Z,39.60
2018-03-03T12:34:41.060Z,36.00
2018-03-03T12:37:08.860Z,35.80
2018-03-03T12:39:36.568Z,36.40
2018-03-03T12:42:03.500Z,37.90
2018-03-03T12:44:29.992Z,35.10
2018-03-03T12:46:56.474Z,37.80
2018-03-03T12:49:23.902Z,35.30
2018-03-03T12:51:58.885Z,35.20
2018-03-03T12:54:25.987Z,35.30
2018-03-03T12:57:02.976Z,38.10
2018-03-03T12:59:30.343Z,39.60
2018-03-03T13:01:57.476Z,39.00
2018-03-03T13:04:24.219Z,43.10
2018-03-03T13:06:51.318Z,40.20
2018-03-03T13:09:18.366Z,39.10
2018-03-03T13:11:46.532Z,40.00
2018-03-03T13:14:14.025Z,39.90
2018-03-03T13:16:41.083Z,39.90
2018-03-03T13:19:09.354Z,40.20
2018-03-03T13:21:42.915Z,40.50
2018-03-03T13:24:10.037Z,40.50
2018-03-03T13:26:45.790Z,41.20
2018-03-03T13:29:12.912Z,39.70
2018-03-03T13:31:39.612Z,39.90
2018-03-03T13:34:06.259Z,40.70
2018-03-03T13:36:32.978Z,40.40
2018-03-03T13:38:59.768Z,40.60
2018-03-03T13:41:26.420Z,40.20
2018-03-03T13:43:54.005Z,41.40
2018-03-03T13:46:20.756Z,40.20
2018-03-03T13:48:47.719Z,41.30
2018-03-03T13:51:14.343Z,41.80
2018-03-03T13:53:41.218Z,39.80
2018-03-03T13:56:07.910Z,40.90
2018-03-03T13:58:34.769Z,39.80
2018-03-03T14:01:01.588Z,41.60
2018-03-03T14:03:28.313Z,41.10
2018-03-03T14:05:55.049Z,42.70
2018-03-03T14:08:21.740Z,43.40
2018-03-03T14:10:49.275Z,42.90
2018-03-03T14:13:16.036Z,42.80
2018-03-03T14:15:42.702Z,43.00
2018-03-03T14:18:09.949Z,46.90
2018-03-03T14:20:36.543Z,46.80
2018-03-03T14:23:03.084Z,48.70
2018-03-03T14:25:29.601Z,49.10
2018-03-03T14:27:56.009Z,49.80
2018-03-03T14:30:23.227Z,49.50
2018-03-03T14:32:49.655Z,49.40
2018-03-03T14:35:16.142Z,50.10
2018-03-03T14:37:43.321Z,50.60
2018-03-03T14:40:09.762Z,50.60
2018-03-03T14:42:36.296Z,51.80
2018-03-03T14:45:02.797Z,52.60
2018-03-03T14:47:30.002Z,52.20
2018-03-03T14:49:57.258Z,53.80
2018-03-03T14:52:25.253Z,53.70
2018-03-03T14:54:51.731Z,53.70
2018-03-03T14:57:18.252Z,54.40
2018-03-03T14:59:45.571Z,55.00
2018-03-03T15:02:12.079Z,55.00
2018-03-03T15:04:38.544Z,55.60
2018-03-03T15:07:05.153Z,56.10
2018-03-03T15:09:31.704Z,55.90
2018-03-03T15:11:58.204Z,56.50
2018-03-03T15:14:24.644Z,57.10
2018-03-03T15:16:51.124Z,57.00
2018-03-03T15:19:17.536Z,56.70
2018-03-03T15:21:45.464Z,57.90
2018-03-03T15:24:11.907Z,57.80
2018-03-03T15:26:38.316Z,59.10
2018-03-03T15:29:04.780Z,61.30
2018-03-03T15:31:31.171Z,61.00
2018-03-03T15:33:58.365Z,63.40
2018-03-03T15:36:24.774Z,62.60
2018-03-03T15:38:51.217Z,62.90
2018-03-03T15:41:17.635Z,63.50
2018-03-03T15:43:44.841Z,64.60
2018-03-03T15:46:11.309Z,64.60
2018-03-03T15:48:38.490Z,65.50
2018-03-03T15:51:05.200Z,65.30
2018-03-03T15:53:32.539Z,65.80
2018-03-03T15:55:59.031Z,66.70
2018-03-03T15:58:26.298Z,67.70
2018-03-03T16:00:52.726Z,67.60
2018-03-03T16:03:19.141Z,67.30
2018-03-03T16:05:46.357Z,67.70
2018-03-03T16:08:12.778Z,67.60
2018-03-03T16:10:39.237Z,67.50
2018-03-03T16:13:05.736Z,67.50
2018-03-03T16:15:32.204Z,67.60
2018-03-03T16:17:59.379Z,68.80
2018-03-03T16:20:25.865Z,68.70
2018-03-03T16:22:53.804Z,69.80
2018-03-03T16:25:21.216Z,69.70
2018-03-03T16:27:47.654Z,70.20
2018-03-03T16:30:14.072Z,70.70
2018-03-03T16:32:40.492Z,71.10
2018-03-03T16:35:06.928Z,71.30
2018-03-03T16:37:33.335Z,71.50
2018-03-03T16:39:59.774Z,71.50
2018-03-03T16:42:26.208Z,71.80
2018-03-03T16:44:52.720Z,71.70
2018-03-03T16:47:19.156Z,72.70
2018-03-03T16:49:45.654Z,72.40
2018-03-03T16:52:12.828Z,73.20
2018-03-03T16:54:40.020Z,73.90
2018-03-03T16:57:06.443Z,73.20
2018-03-03T16:59:32.908Z,73.20
2018-03-03T17:01:59.322Z,73.30
2018-03-03T17:04:25.769Z,73.60
2018-03-03T17:06:52.243Z,74.20
2018-03-03T17:09:18.661Z,74.30
2018-03-03T17:11:49.794Z,75.00
2018-03-03T17:14:16.487Z,74.80
2018-03-03T17:16:42.914Z,75.20
2018-03-03T17:19:10.018Z,75.50
2018-03-03T17:21:36.544Z,75.60
2018-03-03T17:24:02.952Z,75.80
2018-03-03T17:26:29.344Z,75.90
2018-03-03T17:28:56.518Z,76.20
2018-03-03T17:31:22.934Z,76.20
2018-03-03T17:33:49.427Z,76.50
2018-03-03T17:36:15.890Z,77.50
2018-03-03T17:38:43.131Z,77.30
2018-03-03T17:41:09.586Z,77.20
2018-03-03T17:43:36.025Z,77.40
2018-03-03T17:46:03.194Z,77.40
2018-03-03T17:48:30.357Z,77.80
2018-03-03T17:50:57.540Z,77.70
2018-03-03T17:53:23.951Z,77.70
2018-03-03T17:55:50.388Z,77.60
2018-03-03T17:58:16.805Z,77.60
2018-03-03T18:00:43.301Z,77.70
2018-03-03T18:03:09.728Z,77.70
2018-03-03T18:05:36.162Z,77.50
2018-03-03T18:08:02.696Z,77.30
2018-03-03T18:10:29.900Z,77.00
2018-03-03T18:12:57.061Z,76.90
2018-03-03T18:15:27.427Z,76.80
2018-03-03T18:17:53.925Z,76.90
2018-03-03T18:20:22.444Z,77.00
2018-03-03T18:22:48.853Z,77.00
2018-03-03T18:25:15.292Z,77.10
2018-03-03T18:27:41.723Z,77.10
2018-03-03T18:30:08.200Z,77.30
2018-03-03T18:32:34.617Z,77.50
2018-03-03T18:35:01.042Z,77.40
2018-03-03T18:37:27.521Z,77.40
2018-03-03T18:39:55.716Z,77.20
2018-03-03T18:42:22.933Z,77.00
2018-03-03T18:44:49.351Z,77.00
2018-03-03T18:47:15.782Z,77.00
2018-03-03T18:49:42.180Z,77.60
2018-03-03T18:52:08.620Z,77.80
2018-03-03T18:54:35.073Z,77.70
2018-03-03T18:57:01.502Z,77.70
2018-03-03T18:59:27.934Z,77.70
2018-03-03T19:01:54.367Z,77.60
2018-03-03T19:04:20.756Z,77.70
2018-03-03T19:06:47.956Z,77.70
2018-03-03T19:09:14.405Z,77.60
2018-03-03T19:11:40.854Z,77.70
2018-03-03T19:14:08.026Z,78.50
2018-03-03T19:16:34.492Z,77.60
2018-03-03T19:19:00.931Z,77.60
2018-03-03T19:21:27.397Z,77.60
2018-03-03T19:23:53.825Z,77.60
2018-03-03T19:26:20.249Z,77.70
2018-03-03T19:28:46.704Z,78.00
2018-03-03T19:31:13.157Z,78.10
2018-03-03T19:33:39.561Z,78.50
2018-03-03T19:36:05.957Z,79.60
2018-03-03T19:38:32.385Z,79.00
2018-03-03T19:40:58.817Z,79.30
2018-03-03T19:43:26.162Z,79.40
2018-03-03T19:45:53.315Z,79.60
2018-03-03T19:48:19.742Z,79.60
2018-03-03T19:50:46.916Z,79.70
2018-03-03T19:53:13.352Z,79.50
2018-03-03T19:55:39.861Z,79.60
2018-03-03T19:58:07.039Z,80.20
2018-03-03T20:00:33.596Z,80.10
2018-03-03T20:03:00.069Z,80.00
2018-03-03T20:05:26.474Z,79.90
2018-03-03T20:07:53.913Z,79.90
2018-03-03T20:10:20.343Z,80.20
2018-03-03T20:12:46.817Z,80.30
2018-03-03T20:15:13.256Z,80.20
2018-03-03T20:17:39.697Z,80.50
2018-03-03T20:20:06.219Z,80.40
2018-03-03T20:22:32.672Z,80.50
2018-03-03T20:24:59.093Z,80.90
2018-03-03T20:27:25.520Z,80.80
2018-03-03T20:29:51.949Z,81.00
2018-03-03T20:32:18.398Z,81.10
2018-03-03T20:34:44.861Z,81.10
2018-03-03T20:37:11.260Z,81.80
2018-03-03T20:39:37.712Z,82.60
2018-03-03T20:42:04.120Z,82.30
2018-03-03T20:44:30.543Z,82.40
2018-03-03T20:46:56.976Z,82.30
2018-03-03T20:49:23.393Z,82.80
2018-03-03T20:51:49.816Z,82.70
2018-03-03T20:54:16.253Z,82.70
2018-03-03T20:56:42.694Z,82.70
2018-03-03T20:59:09.132Z,82.80
2018-03-03T21:01:35.582Z,83.00
2018-03-03T21:04:05.896Z,83.50
2018-03-03T21:06:32.310Z,83.40
2018-03-03T21:08:58.761Z,83.30
2018-03-03T21:11:27.035Z,83.40
2018-03-03T21:13:53.509Z,83.50
2018-03-03T21:16:19.949Z,83.70
2018-03-03T21:18:46.409Z,84.10
2018-03-03T21:21:13.589Z,84.30
2018-03-03T21:23:40.015Z,84.20
2018-03-03T21:26:06.473Z,84.50
2018-03-03T21:28:32.896Z,86.20
2018-03-03T21:30:59.350Z,85.10
2018-03-03T21:33:25.769Z,85.70
2018-03-03T21:35:52.209Z,85.70
2018-03-03T21:38:18.617Z,86.30
2018-03-03T21:40:45.148Z,87.00
2018-03-03T21:43:11.587Z,87.20
2018-03-03T21:45:38.001Z,88.20
2018-03-03T21:48:05.160Z,88.60
2018-03-03T21:50:32.325Z,88.80
2018-03-03T21:52:58.744Z,88.70
2018-03-03T21:55:25.935Z,89.00
2018-03-03T21:57:52.540Z,89.00
2018-03-03T22:00:19.742Z,89.20
2018-03-03T22:02:46.165Z,89.20
2018-03-03T22:05:12.580Z,89.40
2018-03-03T22:07:38.995Z,90.00
2018-03-03T22:10:05.474Z,89.90
2018-03-03T22:12:32.690Z,89.90
2018-03-03T22:14:59.185Z,89.90
2018-03-03T22:17:26.413Z,90.10
2018-03-03T22:19:52.845Z,90.10
2018-03-03T22:22:19.281Z,90.00
2018-03-03T22:24:45.725Z,90.20
2018-03-03T22:27:13.000Z,90.50
2018-03-03T22:29:39.409Z,90.50
2018-03-03T22:32:05.853Z,90.40
2018-03-03T22:34:32.296Z,90.30
2018-03-03T22:36:58.731Z,90.20
2018-03-03T22:39:25.181Z,90.30
2018-03-03T22:41:51.596Z,90.40
2018-03-03T22:44:18.028Z,90.40
2018-03-03T22:46:44.493Z,90.20
2018-03-03T22:49:10.901Z,90.20
2018-03-03T22:51:37.316Z,90.20
2018-03-03T22:54:03.746Z,90.20
2018-03-03T22:56:30.183Z,90.20
2018-03-03T22:58:57.381Z,90.30
2018-03-03T23:01:23.841Z,90.30
2018-03-03T23:03:54.123Z,90.30
2018-03-03T23:06:20.552Z,90.50
2018-03-03T23:08:46.976Z,90.50
2018-03-03T23:11:14.514Z,90.90
2018-03-03T23:13:40.942Z,90.90
2018-03-03T23:16:07.381Z,90.80
2018-03-03T23:18:33.855Z,90.90
2018-03-03T23:21:01.017Z,91.10
2018-03-03T23:23:28.194Z,90.90
2018-03-03T23:25:54.688Z,91.20
2018-03-03T23:28:21.884Z,90.90
2018-03-03T23:30:48.354Z,90.90
2018-03-03T23:33:18.529Z,90.90
2018-03-03T23:35:44.950Z,91.00
2018-03-03T23:38:12.117Z,91.10
2018-03-03T23:40:38.595Z,91.10
2018-03-03T23:43:05.021Z,91.10
2018-03-03T23:45:31.566Z,91.20
2018-03-03T23:47:58.813Z,91.30
2018-03-03T23:50:25.216Z,91.30
2018-03-03T23:52:51.657Z,91.20
2018-03-03T23:55:18.080Z,91.30
2018-03-03T23:57:44.504Z,91.30
